Latest Weather Observations for Port Kembla Harbour

IDN60801

Issued at 8:13 pm EST Thursday 13 June 2024 (issued every 10 minutes, with the page automatically refreshed every 10 minutes)

About weather observations | Map of weather stations | Latest weather observations for NSW | Other Formats
Station Details ID: 068253 Name: PORT KEMBLA NTC AWS Lat: -34.47 Lon: 150.91 Height: 0.0 m
Data from the previous 72 hours. | See also: Recent months for locations in New South Wales
Date/Time
EST
Temp
°C
App
Temp
°C
Dew
Point
°C
Rel
Hum
%
Delta-T
°C
Wind Press
QNH
hPa
Press
MSL
hPa
Rain since
9am
mm
Dir  Spd
km/h
Gust
km/h
Spd
kts
Gust
kts
13/08:00pm 12.3 - - - - WSW 9 11 5 6 1020.5 1020.5 -
13/07:30pm 12.5 - - - - WSW 7 9 4 5 1020.3 1020.3 -
13/07:00pm 12.6 - - - - W 11 13 6 7 1020.2 1020.2 -
13/06:30pm 12.9 - - - - WSW 9 11 5 6 1019.9 1019.9 -
13/06:00pm 13.4 - - - - WSW 9 13 5 7 1020.0 1020.0 -
13/05:30pm 13.4 - - - - W 11 13 6 7 1020.0 1020.0 -
13/05:00pm 14.0 - - - - WSW 9 13 5 7 1019.6 1019.6 -
13/04:30pm 14.2 - - - - WSW 11 15 6 8 1019.6 1019.6 -
13/04:00pm 14.3 - - - - WSW 11 15 6 8 1019.4 1019.4 -
13/03:30pm 14.4 - - - - SW 13 19 7 10 1019.2 1019.2 -
13/03:00pm 14.5 - - - - SW 15 19 8 10 1019.4 1019.4 -
13/02:30pm 14.5 - - - - SW 13 20 7 11 1019.2 1019.2 -
13/02:00pm 14.7 - - - - SW 11 19 6 10 1018.9 1018.9 -
13/01:30pm 14.5 - - - - WSW 17 24 9 13 1018.8 1018.8 -
13/01:00pm 14.5 - - - - WSW 15 20 8 11 1019.0 1019.0 -
13/12:30pm 14.1 - - - - WSW 19 26 10 14 1019.0 1019.0 -
13/12:00pm 14.6 - - - - SW 19 28 10 15 1019.2 1019.2 -
13/11:30am 14.3 - - - - WSW 15 24 8 13 1019.4 1019.4 -
13/11:00am 13.9 - - - - WSW 20 30 11 16 1019.7 1019.7 -
13/10:30am 13.4 - - - - WSW 20 28 11 15 1020.2 1020.2 -
13/10:00am 12.9 - - - - WSW 22 32 12 17 1020.3 1020.3 -
13/09:30am 12.6 - - - - WSW 20 30 11 16 1020.1 1020.1 -
13/09:00am 12.2 - - - - WSW 22 32 12 17 1019.7 1019.7 -
13/08:30am 11.7 - - - - WSW 19 26 10 14 1019.6 1019.6 -
13/08:00am 11.3 - - - - WSW 20 28 11 15 1019.6 1019.6 -
13/07:30am 11.1 - - - - WSW 22 28 12 15 1020.0 1020.0 -
13/07:00am 11.0 - - - - WSW 22 32 12 17 1020.0 1020.0 -
13/06:30am 10.9 - - - - WSW 17 22 9 12 1019.5 1019.5 -
13/06:00am 11.2 - - - - WSW 24 35 13 19 1019.7 1019.7 -
13/05:30am 11.2 - - - - WSW 19 26 10 14 1018.5 1018.5 -
13/05:00am 11.3 - - - - WSW 19 35 10 19 1018.3 1018.3 -
13/04:30am 11.7 - - - - WSW 20 32 11 17 1017.9 1017.9 -
13/04:00am 11.7 - - - - WSW 20 30 11 16 1018.0 1018.0 -
13/03:30am 11.6 - - - - WSW 19 26 10 14 1017.8 1017.8 -
13/03:00am 11.7 - - - - WSW 19 28 10 15 1017.8 1017.8 -
13/02:30am 11.8 - - - - WSW 20 30 11 16 1018.1 1018.1 -
13/02:00am 11.8 - - - - WSW 19 28 10 15 1018.0 1018.0 -
13/01:30am 11.7 - - - - WSW 19 28 10 15 1018.1 1018.1 -
13/01:00am 11.7 - - - - WSW 19 24 10 13 1018.0 1018.0 -
13/12:30am 11.3 - - - - W 20 28 11 15 1018.1 1018.1 -
13/12:00am 11.0 - - - - W 15 22 8 12 1018.0 1018.0 -
 
Date/Time
EST
Temp
°C
App
Temp
°C
Dew
Point
°C
Rel
Hum
%
Delta-T
°C
Wind Press
QNH
hPa
Press
MSL
hPa
Rain since
9am
mm
Dir  Spd
km/h
Gust
km/h
Spd
kts
Gust
kts
12/11:30pm 12.0 - - - - W 17 32 9 17 1018.1 1018.1 -
12/11:00pm 12.0 - - - - WSW 19 26 10 14 1018.2 1018.2 -
12/10:30pm 12.1 - - - - WSW 13 20 7 11 1018.0 1018.0 -
12/10:00pm 12.3 - - - - SW 15 20 8 11 1017.7 1017.7 -
12/09:30pm 12.6 - - - - SW 17 26 9 14 1017.5 1017.5 -
12/09:00pm 12.7 - - - - WSW 17 24 9 13 1017.2 1017.2 -
12/08:30pm 12.5 - - - - WSW 13 20 7 11 1016.8 1016.8 -
12/08:00pm 12.9 - - - - WSW 15 20 8 11 1016.3 1016.3 -
12/07:30pm 13.0 - - - - WSW 17 22 9 12 1015.9 1015.9 -
12/07:00pm 13.2 - - - - WSW 15 22 8 12 1015.5 1015.5 -
12/06:30pm 13.2 - - - - SW 13 17 7 9 1015.1 1015.1 -
12/06:00pm 13.5 - - - - WSW 15 24 8 13 1014.5 1014.5 -
12/05:30pm 13.9 - - - - SW 17 28 9 15 1013.7 1013.7 -
12/05:00pm 13.5 - - - - WSW 9 13 5 7 1013.1 1013.1 -
12/04:30pm 14.1 - - - - SW 7 11 4 6 1012.6 1012.6 -
12/04:00pm 13.9 - - - - SW 7 11 4 6 1012.0 1012.0 -
12/03:30pm 13.6 - - - - SW 7 11 4 6 1011.4 1011.4 -
12/03:00pm 13.3 - - - - WSW 9 15 5 8 1010.7 1010.7 -
12/02:30pm 12.6 - - - - W 13 17 7 9 1010.2 1010.2 -
12/02:00pm 12.3 - - - - WSW 19 26 10 14 1010.0 1010.0 -
12/01:30pm 11.9 - - - - SSW 17 33 9 18 1009.4 1009.4 -
12/01:00pm 11.7 - - - - SSW 28 52 15 28 1009.2 1009.2 -
12/12:38pm 15.8 - - - - WSW 37 57 20 31 1008.7 1008.7 -
12/12:30pm 17.4 - - - - WSW 43 61 23 33 1007.2 1007.2 -
12/12:00pm 17.4 - - - - W 43 69 23 37 1007.1 1007.1 -
12/11:30am 17.3 - - - - WSW 39 57 21 31 1006.9 1006.9 -
12/11:00am 17.4 - - - - W 44 63 24 34 1006.6 1006.6 -
12/10:37am 17.2 - - - - W 32 50 17 27 1006.7 1006.7 -
12/10:30am 17.2 - - - - W 28 50 15 27 1006.7 1006.7 -
12/10:00am 16.9 - - - - W 24 44 13 24 1007.2 1007.2 -
12/09:30am 16.3 - - - - WSW 26 52 14 28 1007.6 1007.6 -
12/09:22am 16.3 - - - - WSW 28 52 15 28 1007.8 1007.8 -
12/09:00am 15.9 - - - - W 30 46 16 25 1007.8 1007.8 -
12/08:34am 15.8 - - - - W 30 50 16 27 1007.9 1007.9 -
12/08:30am 15.8 - - - - W 28 44 15 24 1007.9 1007.9 -
12/08:00am 15.6 - - - - W 22 33 12 18 1007.5 1007.5 -
12/07:30am 15.7 - - - - W 19 33 10 18 1007.3 1007.3 -
12/07:09am 15.9 - - - - W 28 46 15 25 1007.2 1007.2 -
12/07:00am 16.0 - - - - W 26 46 14 25 1007.4 1007.4 -
12/06:30am 16.2 - - - - WNW 15 22 8 12 1007.2 1007.2 -
12/06:00am 16.1 - - - - WNW 26 41 14 22 1007.1 1007.1 -
12/05:30am 15.9 - - - - W 20 28 11 15 1007.3 1007.3 -
12/05:00am 15.6 - - - - W 13 19 7 10 1007.6 1007.6 -
12/04:30am 16.3 - - - - WSW 17 32 9 17 1007.5 1007.5 -
12/04:00am 15.6 - - - - W 7 11 4 6 1007.7 1007.7 -
12/03:30am 16.8 - - - - W 20 33 11 18 1007.7 1007.7 -
12/03:00am 16.8 - - - - WNW 15 26 8 14 1008.2 1008.2 -
12/02:30am 16.5 - - - - W 11 19 6 10 1008.4 1008.4 -
12/02:00am 16.4 - - - - W 17 35 9 19 1008.3 1008.3 -
12/01:30am 16.7 - - - - W 28 43 15 23 1008.6 1008.6 -
12/01:00am 16.9 - - - - W 30 43 16 23 1008.5 1008.5 -
12/12:41am 17.2 - - - - W 28 52 15 28 1008.5 1008.5 -
12/12:30am 17.0 - - - - W 28 39 15 21 1008.9 1008.9 -
12/12:04am 16.9 - - - - W 28 48 15 26 1009.1 1009.1 -
12/12:00am 16.9 - - - - W 32 48 17 26 1009.0 1009.0 -
 
Date/Time
EST
Temp
°C
App
Temp
°C
Dew
Point
°C
Rel
Hum
%
Delta-T
°C
Wind Press
QNH
hPa
Press
MSL
hPa
Rain since
9am
mm
Dir  Spd
km/h
Gust
km/h
Spd
kts
Gust
kts
11/11:36pm 17.2 - - - - WNW 43 61 23 33 1007.7 1007.7 -
11/11:30pm 17.3 - - - - WNW 43 59 23 32 1007.9 1007.9 -
11/11:00pm 17.3 - - - - W 33 57 18 31 1009.6 1009.6 -
11/10:37pm 17.4 - - - - W 28 50 15 27 1009.9 1009.9 -
11/10:30pm 17.2 - - - - WSW 20 35 11 19 1009.8 1009.8 -
11/10:00pm 18.0 - - - - WNW 32 44 17 24 1009.2 1009.2 -
11/09:30pm 17.8 - - - - WNW 33 54 18 29 1009.6 1009.6 -
11/09:24pm 17.8 - - - - WNW 30 50 16 27 1009.6 1009.6 -
11/09:00pm 17.7 - - - - WNW 15 32 8 17 1010.2 1010.2 -
11/08:30pm 17.6 - - - - NNW 13 20 7 11 1010.2 1010.2 -
11/08:09pm 17.6 - - - - NW 30 48 16 26 1009.9 1009.9 -
11/08:00pm 17.6 - - - - NW 35 50 19 27 1009.3 1009.3 -
11/07:38pm 17.5 - - - - NNW 43 63 23 34 1008.8 1008.8 -
11/07:30pm 17.4 - - - - NW 41 54 22 29 1009.1 1009.1 -
11/07:00pm 17.3 - - - - NW 37 56 20 30 1009.9 1009.9 -
11/06:30pm 17.6 - - - - WNW 39 65 21 35 1011.6 1011.6 -
11/06:22pm 17.4 - - - - WNW 30 50 16 27 1011.9 1011.9 -
11/06:00pm 17.7 - - - - WNW 20 30 11 16 1012.1 1012.1 -
11/05:30pm 17.8 - - - - WNW 28 43 15 23 1011.9 1011.9 -
11/05:00pm 17.9 - - - - NW 19 28 10 15 1011.9 1011.9 -
11/04:30pm 18.3 - - - - WNW 20 32 11 17 1011.9 1011.9 -
11/04:00pm 17.8 - - - - NW 20 32 11 17 1012.3 1012.3 -
11/03:30pm 16.2 - - - - NW 17 22 9 12 1012.7 1012.7 -
11/03:00pm 16.1 - - - - W 4 9 2 5 1013.3 1013.3 -
11/02:30pm 15.7 - - - - W 7 17 4 9 1012.9 1012.9 -
11/02:00pm 15.8 - - - - NNW 6 11 3 6 1013.5 1013.5 -
11/01:30pm 16.1 - - - - WNW 17 22 9 12 1014.4 1014.4 -
11/01:00pm 16.4 - - - - NNW 11 19 6 10 1014.3 1014.3 -
11/12:30pm 16.0 - - - - NNW 11 17 6 9 1014.9 1014.9 -
11/12:00pm 16.3 - - - - NW 15 22 8 12 1015.4 1015.4 -
11/11:30am 16.0 - - - - SW 7 13 4 7 1016.1 1016.1 -
11/11:00am 15.6 - - - - NW 17 22 9 12 1016.6 1016.6 -
11/10:30am 15.1 - - - - NW 24 28 13 15 1017.2 1017.2 -
11/10:00am 14.6 - - - - WNW 28 39 15 21 1018.0 1018.0 -
11/09:30am 14.2 - - - - NW 17 26 9 14 1018.4 1018.4 -
11/09:00am 13.1 - - - - NW 11 15 6 8 1018.9 1018.9 -
11/08:30am 13.3 - - - - WNW 15 20 8 11 1018.8 1018.8 -
11/08:00am 11.6 - - - - SW 4 7 2 4 1018.9 1018.9 -
11/07:30am 13.0 - - - - NNW 13 19 7 10 1018.9 1018.9 -
11/07:00am 13.5 - - - - N 7 11 4 6 1019.4 1019.4 -
11/06:30am 13.9 - - - - NNW 15 22 8 12 1019.7 1019.7 -
11/06:00am 14.0 - - - - NNW 19 24 10 13 1019.8 1019.8 -
11/05:30am 14.1 - - - - NW 13 19 7 10 1019.9 1019.9 -
11/05:00am 13.5 - - - - NW 13 20 7 11 1020.2 1020.2 -
11/04:30am 13.8 - - - - NW 17 20 9 11 1020.0 1020.0 -
11/04:00am 11.3 - - - - WSW 6 9 3 5 1020.0 1020.0 -
11/03:30am 10.4 - - - - WSW 7 9 4 5 1020.4 1020.4 -
11/03:00am 10.9 - - - - W 11 15 6 8 1020.6 1020.6 -
11/02:30am 10.7 - - - - WSW 9 11 5 6 1020.6 1020.6 -
11/02:00am 10.9 - - - - WSW 7 9 4 5 1020.8 1020.8 -
11/01:30am 10.5 - - - - WSW 9 11 5 6 1021.0 1021.0 -
11/01:00am 10.2 - - - - WSW 7 9 4 5 1021.1 1021.1 -
11/12:30am 10.6 - - - - WSW 6 9 3 5 1021.6 1021.6 -
11/12:00am 10.4 - - - - WSW 7 9 4 5 1021.7 1021.7 -
 
Date/Time
EST
Temp
°C
App
Temp
°C
Dew
Point
°C
Rel
Hum
%
Delta-T
°C
Wind Press
QNH
hPa
Press
MSL
hPa
Rain since
9am
mm
Dir  Spd
km/h
Gust
km/h
Spd
kts
Gust
kts
10/11:30pm 10.7 - - - - WSW 6 7 3 4 1022.1 1022.1 -
10/11:00pm 10.4 - - - - WSW 6 7 3 4 1022.4 1022.4 -
10/10:30pm 10.4 - - - - W 7 9 4 5 1022.3 1022.3 -
10/10:00pm 11.1 - - - - WSW 9 11 5 6 1022.4 1022.4 -
10/09:30pm 10.6 - - - - WSW 9 13 5 7 1022.3 1022.3 -
10/09:00pm 11.2 - - - - W 11 15 6 8 1022.2 1022.2 -
10/08:30pm 11.6 - - - - WSW 6 7 3 4 1022.1 1022.1 -

Other formats

Comma delimited format used in spreadsheet applications
http://www.bom.gov.au/fwo/IDN60801/IDN60801.95745.axf

JavaScript Object Notation format (JSON) in row-major order
http://www.bom.gov.au/fwo/IDN60801/IDN60801.95745.json

Data quality

Most of these data are generated automatically and are frequently updated. Quality checks on data are not normally performed. It is possible for incorrect values to appear. Refer to information at About Latest Weather Observations and please check the disclaimer before using these data.